sensor_id;sensor_type;location;lat;lon;timestamp;temperature;humidity
18408;DHT22;9330;52.210;21.174;2022-12-07T00:00:51;1.40;99.90
18408;DHT22;9330;52.210;21.174;2022-12-07T00:03:18;1.50;99.90
18408;DHT22;9330;52.210;21.174;2022-12-07T00:05:45;1.60;99.90
18408;DHT22;9330;52.210;21.174;2022-12-07T00:08:12;1.50;99.90
18408;DHT22;9330;52.210;21.174;2022-12-07T00:10:40;1.40;99.90
18408;DHT22;9330;52.210;21.174;2022-12-07T00:13:07;1.40;99.90
18408;DHT22;9330;52.210;21.174;2022-12-07T00:15:34;1.40;99.90
18408;DHT22;9330;52.210;21.174;2022-12-07T00:18:02;1.40;99.90
18408;DHT22;9330;52.210;21.174;2022-12-07T00:20:29;1.40;99.90
18408;DHT22;9330;52.210;21.174;2022-12-07T00:22:56;1.40;99.90
18408;DHT22;9330;52.210;21.174;2022-12-07T00:25:23;1.50;99.90
18408;DHT22;9330;52.210;21.174;2022-12-07T00:27:52;1.40;99.90
18408;DHT22;9330;52.210;21.174;2022-12-07T00:30:19;1.40;99.90
18408;DHT22;9330;52.210;21.174;2022-12-07T00:32:46;1.40;99.90
18408;DHT22;9330;52.210;21.174;2022-12-07T00:35:13;1.50;99.90
18408;DHT22;9330;52.210;21.174;2022-12-07T00:37:40;1.30;99.90
18408;DHT22;9330;52.210;21.174;2022-12-07T00:40:07;1.30;99.90
18408;DHT22;9330;52.210;21.174;2022-12-07T00:42:34;1.30;99.90
18408;DHT22;9330;52.210;21.174;2022-12-07T00:45:03;1.30;99.90
18408;DHT22;9330;52.210;21.174;2022-12-07T00:47:30;1.30;99.90
18408;DHT22;9330;52.210;21.174;2022-12-07T00:49:57;1.30;99.90
18408;DHT22;9330;52.210;21.174;2022-12-07T00:52:25;1.40;99.90
18408;DHT22;9330;52.210;21.174;2022-12-07T00:54:52;1.30;99.90
18408;DHT22;9330;52.210;21.174;2022-12-07T00:57:19;1.40;99.90
18408;DHT22;9330;52.210;21.174;2022-12-07T00:59:46;1.30;99.90
18408;DHT22;9330;52.210;21.174;2022-12-07T01:02:15;1.30;99.90
18408;DHT22;9330;52.210;21.174;2022-12-07T01:04:42;1.40;99.90
18408;DHT22;9330;52.210;21.174;2022-12-07T01:07:09;1.30;99.90
18408;DHT22;9330;52.210;21.174;2022-12-07T01:09:36;1.40;99.90
18408;DHT22;9330;52.210;21.174;2022-12-07T01:12:04;1.40;99.90
18408;DHT22;9330;52.210;21.174;2022-12-07T01:14:31;1.40;99.90
18408;DHT22;9330;52.210;21.174;2022-12-07T01:16:58;1.40;99.90
18408;DHT22;9330;52.210;21.174;2022-12-07T01:19:26;1.50;99.90
18408;DHT22;9330;52.210;21.174;2022-12-07T01:21:53;1.40;99.90
18408;DHT22;9330;52.210;21.174;2022-12-07T01:24:20;1.30;99.90
18408;DHT22;9330;52.210;21.174;2022-12-07T01:26:49;1.50;99.90
18408;DHT22;9330;52.210;21.174;2022-12-07T01:29:16;1.40;99.90
18408;DHT22;9330;52.210;21.174;2022-12-07T01:31:44;1.40;99.90
18408;DHT22;9330;52.210;21.174;2022-12-07T01:34:11;1.40;99.90
18408;DHT22;9330;52.210;21.174;2022-12-07T01:36:39;1.40;99.90
18408;DHT22;9330;52.210;21.174;2022-12-07T01:39:08;1.60;99.90
18408;DHT22;9330;52.210;21.174;2022-12-07T01:41:38;1.50;99.90
18408;DHT22;9330;52.210;21.174;2022-12-07T01:44:27;1.60;99.90
18408;DHT22;9330;52.210;21.174;2022-12-07T01:46:56;1.50;99.90
18408;DHT22;9330;52.210;21.174;2022-12-07T01:49:29;1.40;99.90
18408;DHT22;9330;52.210;21.174;2022-12-07T01:52:07;1.60;99.90
18408;DHT22;9330;52.210;21.174;2022-12-07T01:54:36;1.60;99.90
18408;DHT22;9330;52.210;21.174;2022-12-07T01:57:03;1.60;99.90
18408;DHT22;9330;52.210;21.174;2022-12-07T01:59:31;1.70;99.90
18408;DHT22;9330;52.210;21.174;2022-12-07T02:01:58;1.60;99.90
18408;DHT22;9330;52.210;21.174;2022-12-07T02:04:28;1.70;99.90
18408;DHT22;9330;52.210;21.174;2022-12-07T02:06:56;1.70;99.90
18408;DHT22;9330;52.210;21.174;2022-12-07T02:09:25;1.70;99.90
18408;DHT22;9330;52.210;21.174;2022-12-07T02:11:53;1.70;99.90
18408;DHT22;9330;52.210;21.174;2022-12-07T02:14:21;1.80;99.90
18408;DHT22;9330;52.210;21.174;2022-12-07T02:17:00;1.90;99.90
18408;DHT22;9330;52.210;21.174;2022-12-07T02:22:47;1.90;99.90
18408;DHT22;9330;52.210;21.174;2022-12-07T02:25:30;1.90;99.90
18408;DHT22;9330;52.210;21.174;2022-12-07T02:28:02;2.00;99.90
18408;DHT22;9330;52.210;21.174;2022-12-07T02:30:34;2.00;99.90
18408;DHT22;9330;52.210;21.174;2022-12-07T02:33:05;2.00;99.90
18408;DHT22;9330;52.210;21.174;2022-12-07T02:35:40;2.00;99.90
18408;DHT22;9330;52.210;21.174;2022-12-07T02:38:13;2.10;99.90
18408;DHT22;9330;52.210;21.174;2022-12-07T02:40:44;2.00;99.90
18408;DHT22;9330;52.210;21.174;2022-12-07T02:43:17;2.00;99.90
18408;DHT22;9330;52.210;21.174;2022-12-07T02:45:48;2.10;99.90
18408;DHT22;9330;52.210;21.174;2022-12-07T02:48:18;2.20;99.90
18408;DHT22;9330;52.210;21.174;2022-12-07T02:50:48;2.10;99.90
18408;DHT22;9330;52.210;21.174;2022-12-07T02:53:29;2.30;99.90
18408;DHT22;9330;52.210;21.174;2022-12-07T02:55:56;2.30;99.90
18408;DHT22;9330;52.210;21.174;2022-12-07T02:58:32;2.20;99.90
18408;DHT22;9330;52.210;21.174;2022-12-07T03:01:11;2.30;99.90
18408;DHT22;9330;52.210;21.174;2022-12-07T03:03:46;2.30;99.90
18408;DHT22;9330;52.210;21.174;2022-12-07T03:06:21;2.30;99.90
18408;DHT22;9330;52.210;21.174;2022-12-07T03:08:53;2.20;99.90
18408;DHT22;9330;52.210;21.174;2022-12-07T03:11:28;2.20;99.90
18408;DHT22;9330;52.210;21.174;2022-12-07T03:14:00;2.20;99.90
18408;DHT22;9330;52.210;21.174;2022-12-07T03:16:35;2.20;99.90
18408;DHT22;9330;52.210;21.174;2022-12-07T03:19:08;2.20;99.90
18408;DHT22;9330;52.210;21.174;2022-12-07T03:21:39;2.40;99.90
18408;DHT22;9330;52.210;21.174;2022-12-07T03:24:10;2.20;99.90
18408;DHT22;9330;52.210;21.174;2022-12-07T03:26:41;2.20;99.90
18408;DHT22;9330;52.210;21.174;2022-12-07T03:29:15;2.20;99.90
18408;DHT22;9330;52.210;21.174;2022-12-07T03:31:48;2.20;99.90
18408;DHT22;9330;52.210;21.174;2022-12-07T03:34:19;2.20;99.90
18408;DHT22;9330;52.210;21.174;2022-12-07T03:36:52;2.20;99.90
18408;DHT22;9330;52.210;21.174;2022-12-07T03:39:24;2.20;99.90
18408;DHT22;9330;52.210;21.174;2022-12-07T03:41:54;2.30;99.90
18408;DHT22;9330;52.210;21.174;2022-12-07T03:44:23;2.20;99.90
18408;DHT22;9330;52.210;21.174;2022-12-07T03:47:00;2.20;99.90
18408;DHT22;9330;52.210;21.174;2022-12-07T03:49:32;2.10;99.90
18408;DHT22;9330;52.210;21.174;2022-12-07T03:52:08;2.20;99.90
18408;DHT22;9330;52.210;21.174;2022-12-07T03:54:40;2.20;99.90
18408;DHT22;9330;52.210;21.174;2022-12-07T03:57:09;2.20;99.90
18408;DHT22;9330;52.210;21.174;2022-12-07T03:59:38;2.20;99.90
18408;DHT22;9330;52.210;21.174;2022-12-07T04:02:08;2.10;99.90
18408;DHT22;9330;52.210;21.174;2022-12-07T04:04:38;2.10;99.90
18408;DHT22;9330;52.210;21.174;2022-12-07T04:07:05;2.10;99.90
18408;DHT22;9330;52.210;21.174;2022-12-07T04:09:32;2.00;99.90
18408;DHT22;9330;52.210;21.174;2022-12-07T04:11:59;2.10;99.90
18408;DHT22;9330;52.210;21.174;2022-12-07T04:14:26;2.00;99.90
18408;DHT22;9330;52.210;21.174;2022-12-07T04:16:54;2.00;99.90
18408;DHT22;9330;52.210;21.174;2022-12-07T04:19:25;1.90;99.90
18408;DHT22;9330;52.210;21.174;2022-12-07T04:21:52;1.90;99.90
18408;DHT22;9330;52.210;21.174;2022-12-07T04:24:20;2.10;99.90
18408;DHT22;9330;52.210;21.174;2022-12-07T04:26:47;1.90;99.90
18408;DHT22;9330;52.210;21.174;2022-12-07T04:29:15;2.00;99.90
18408;DHT22;9330;52.210;21.174;2022-12-07T04:31:43;1.90;99.90
18408;DHT22;9330;52.210;21.174;2022-12-07T04:34:11;1.70;99.90
18408;DHT22;9330;52.210;21.174;2022-12-07T04:36:39;2.00;99.90
18408;DHT22;9330;52.210;21.174;2022-12-07T04:39:17;1.90;99.90
18408;DHT22;9330;52.210;21.174;2022-12-07T04:41:44;2.00;99.90
18408;DHT22;9330;52.210;21.174;2022-12-07T04:44:13;1.90;99.90
18408;DHT22;9330;52.210;21.174;2022-12-07T04:46:41;1.90;99.90
18408;DHT22;9330;52.210;21.174;2022-12-07T04:49:08;1.90;99.90
18408;DHT22;9330;52.210;21.174;2022-12-07T04:51:35;1.80;99.90
18408;DHT22;9330;52.210;21.174;2022-12-07T04:54:04;1.80;99.90
18408;DHT22;9330;52.210;21.174;2022-12-07T04:56:31;1.80;99.90
18408;DHT22;9330;52.210;21.174;2022-12-07T04:58:58;1.80;99.90
18408;DHT22;9330;52.210;21.174;2022-12-07T05:01:25;1.80;99.90
18408;DHT22;9330;52.210;21.174;2022-12-07T05:03:52;1.80;99.90
18408;DHT22;9330;52.210;21.174;2022-12-07T05:06:19;1.80;99.90
18408;DHT22;9330;52.210;21.174;2022-12-07T05:08:46;1.80;99.90
18408;DHT22;9330;52.210;21.174;2022-12-07T05:11:15;1.70;99.90
18408;DHT22;9330;52.210;21.174;2022-12-07T05:13:56;1.80;99.90
18408;DHT22;9330;52.210;21.174;2022-12-07T05:16:23;1.70;99.90
18408;DHT22;9330;52.210;21.174;2022-12-07T05:18:50;1.80;99.90
18408;DHT22;9330;52.210;21.174;2022-12-07T05:21:17;1.80;99.90
18408;DHT22;9330;52.210;21.174;2022-12-07T05:23:44;1.90;99.90
18408;DHT22;9330;52.210;21.174;2022-12-07T05:26:11;1.70;99.90
18408;DHT22;9330;52.210;21.174;2022-12-07T05:28:39;1.70;99.90
18408;DHT22;9330;52.210;21.174;2022-12-07T05:31:06;1.60;99.90
18408;DHT22;9330;52.210;21.174;2022-12-07T05:33:33;1.70;99.90
18408;DHT22;9330;52.210;21.174;2022-12-07T05:36:00;1.70;99.90
18408;DHT22;9330;52.210;21.174;2022-12-07T05:38:31;1.60;99.90
18408;DHT22;9330;52.210;21.174;2022-12-07T05:41:00;1.60;99.90
18408;DHT22;9330;52.210;21.174;2022-12-07T05:43:28;1.60;99.90
18408;DHT22;9330;52.210;21.174;2022-12-07T05:45:56;1.60;99.90
18408;DHT22;9330;52.210;21.174;2022-12-07T05:48:23;1.60;99.90
18408;DHT22;9330;52.210;21.174;2022-12-07T05:50:51;1.60;99.90
18408;DHT22;9330;52.210;21.174;2022-12-07T05:53:18;1.50;99.90
18408;DHT22;9330;52.210;21.174;2022-12-07T05:55:45;1.60;99.90
18408;DHT22;9330;52.210;21.174;2022-12-07T05:58:12;1.40;99.90
18408;DHT22;9330;52.210;21.174;2022-12-07T06:00:58;1.50;99.90
18408;DHT22;9330;52.210;21.174;2022-12-07T06:03:25;1.50;99.90
18408;DHT22;9330;52.210;21.174;2022-12-07T06:05:52;1.40;99.90
18408;DHT22;9330;52.210;21.174;2022-12-07T06:08:19;1.40;99.90
18408;DHT22;9330;52.210;21.174;2022-12-07T06:10:47;1.40;99.90
18408;DHT22;9330;52.210;21.174;2022-12-07T06:13:36;1.30;99.90
18408;DHT22;9330;52.210;21.174;2022-12-07T06:16:04;1.40;99.90
18408;DHT22;9330;52.210;21.174;2022-12-07T06:18:31;1.30;99.90
18408;DHT22;9330;52.210;21.174;2022-12-07T06:20:58;1.30;99.90
18408;DHT22;9330;52.210;21.174;2022-12-07T06:23:25;1.20;99.90
18408;DHT22;9330;52.210;21.174;2022-12-07T06:25:51;1.30;99.90
18408;DHT22;9330;52.210;21.174;2022-12-07T06:28:18;1.20;99.90
18408;DHT22;9330;52.210;21.174;2022-12-07T06:30:45;1.30;99.90
18408;DHT22;9330;52.210;21.174;2022-12-07T06:33:13;1.20;99.90
18408;DHT22;9330;52.210;21.174;2022-12-07T06:35:41;1.20;99.90
18408;DHT22;9330;52.210;21.174;2022-12-07T06:38:08;1.20;99.90
18408;DHT22;9330;52.210;21.174;2022-12-07T06:40:35;1.20;99.90
18408;DHT22;9330;52.210;21.174;2022-12-07T06:43:01;1.30;99.90
18408;DHT22;9330;52.210;21.174;2022-12-07T06:45:28;1.10;99.90
18408;DHT22;9330;52.210;21.174;2022-12-07T06:47:55;1.10;99.90
18408;DHT22;9330;52.210;21.174;2022-12-07T06:50:24;1.10;99.90
18408;DHT22;9330;52.210;21.174;2022-12-07T06:52:51;1.10;99.90
18408;DHT22;9330;52.210;21.174;2022-12-07T06:55:18;1.30;99.90
18408;DHT22;9330;52.210;21.174;2022-12-07T06:57:45;1.20;99.90
18408;DHT22;9330;52.210;21.174;2022-12-07T07:00:13;1.10;99.90
18408;DHT22;9330;52.210;21.174;2022-12-07T07:02:40;1.10;99.90
18408;DHT22;9330;52.210;21.174;2022-12-07T07:05:08;1.10;99.90
18408;DHT22;9330;52.210;21.174;2022-12-07T07:07:36;1.10;99.90
18408;DHT22;9330;52.210;21.174;2022-12-07T07:10:04;1.10;99.90
18408;DHT22;9330;52.210;21.174;2022-12-07T07:12:31;1.10;99.90
18408;DHT22;9330;52.210;21.174;2022-12-07T07:14:58;1.20;99.90
18408;DHT22;9330;52.210;21.174;2022-12-07T07:17:25;1.10;99.90
18408;DHT22;9330;52.210;21.174;2022-12-07T07:19:52;1.10;99.90
18408;DHT22;9330;52.210;21.174;2022-12-07T07:22:18;1.20;99.90
18408;DHT22;9330;52.210;21.174;2022-12-07T07:24:47;1.20;99.90
18408;DHT22;9330;52.210;21.174;2022-12-07T07:27:14;1.10;99.90
18408;DHT22;9330;52.210;21.174;2022-12-07T07:29:41;1.10;99.90
18408;DHT22;9330;52.210;21.174;2022-12-07T07:32:07;1.10;99.90
18408;DHT22;9330;52.210;21.174;2022-12-07T07:34:34;1.10;99.90
18408;DHT22;9330;52.210;21.174;2022-12-07T07:37:01;1.10;99.90
18408;DHT22;9330;52.210;21.174;2022-12-07T07:39:28;1.10;99.90
18408;DHT22;9330;52.210;21.174;2022-12-07T07:41:57;1.00;99.90
18408;DHT22;9330;52.210;21.174;2022-12-07T07:44:24;1.00;99.90
18408;DHT22;9330;52.210;21.174;2022-12-07T07:46:50;1.10;99.90
18408;DHT22;9330;52.210;21.174;2022-12-07T07:49:17;1.10;99.90
18408;DHT22;9330;52.210;21.174;2022-12-07T07:51:44;1.10;99.90
18408;DHT22;9330;52.210;21.174;2022-12-07T07:54:11;1.10;99.90
18408;DHT22;9330;52.210;21.174;2022-12-07T07:56:38;1.10;99.90
18408;DHT22;9330;52.210;21.174;2022-12-07T07:59:06;1.10;99.90
18408;DHT22;9330;52.210;21.174;2022-12-07T08:01:33;1.30;99.90
18408;DHT22;9330;52.210;21.174;2022-12-07T08:04:00;1.20;99.90
18408;DHT22;9330;52.210;21.174;2022-12-07T08:06:27;1.30;99.90
18408;DHT22;9330;52.210;21.174;2022-12-07T08:08:54;1.20;99.90
18408;DHT22;9330;52.210;21.174;2022-12-07T08:11:23;1.30;99.90
18408;DHT22;9330;52.210;21.174;2022-12-07T08:13:50;1.30;99.90
18408;DHT22;9330;52.210;21.174;2022-12-07T08:16:19;1.30;99.90
18408;DHT22;9330;52.210;21.174;2022-12-07T08:18:46;1.30;99.90
18408;DHT22;9330;52.210;21.174;2022-12-07T08:21:15;1.40;99.90
18408;DHT22;9330;52.210;21.174;2022-12-07T08:23:42;1.30;99.90
18408;DHT22;9330;52.210;21.174;2022-12-07T08:26:15;1.40;99.90
18408;DHT22;9330;52.210;21.174;2022-12-07T08:28:42;1.40;99.90
18408;DHT22;9330;52.210;21.174;2022-12-07T08:31:12;1.40;99.90
18408;DHT22;9330;52.210;21.174;2022-12-07T08:33:41;1.50;99.90
18408;DHT22;9330;52.210;21.174;2022-12-07T08:36:11;1.50;99.90
18408;DHT22;9330;52.210;21.174;2022-12-07T08:38:40;1.50;99.90
18408;DHT22;9330;52.210;21.174;2022-12-07T08:41:08;1.50;99.90
18408;DHT22;9330;52.210;21.174;2022-12-07T08:43:36;1.60;99.90
18408;DHT22;9330;52.210;21.174;2022-12-07T08:46:07;1.60;99.90
18408;DHT22;9330;52.210;21.174;2022-12-07T08:48:39;1.60;99.90
18408;DHT22;9330;52.210;21.174;2022-12-07T08:51:09;1.60;99.90
18408;DHT22;9330;52.210;21.174;2022-12-07T08:53:37;1.70;99.90
18408;DHT22;9330;52.210;21.174;2022-12-07T08:56:06;1.70;99.90
18408;DHT22;9330;52.210;21.174;2022-12-07T08:58:35;1.70;99.90
18408;DHT22;9330;52.210;21.174;2022-12-07T09:01:04;1.60;99.90
18408;DHT22;9330;52.210;21.174;2022-12-07T09:03:31;1.80;99.90
18408;DHT22;9330;52.210;21.174;2022-12-07T09:05:58;1.80;99.90
18408;DHT22;9330;52.210;21.174;2022-12-07T09:08:28;1.90;99.90
18408;DHT22;9330;52.210;21.174;2022-12-07T09:10:56;2.10;99.90
18408;DHT22;9330;52.210;21.174;2022-12-07T09:13:23;1.80;99.90
18408;DHT22;9330;52.210;21.174;2022-12-07T09:15:50;1.90;99.90
18408;DHT22;9330;52.210;21.174;2022-12-07T09:18:17;1.90;99.90
18408;DHT22;9330;52.210;21.174;2022-12-07T09:20:44;2.00;99.90
18408;DHT22;9330;52.210;21.174;2022-12-07T09:23:11;2.00;99.90
18408;DHT22;9330;52.210;21.174;2022-12-07T09:25:39;2.10;99.90
18408;DHT22;9330;52.210;21.174;2022-12-07T09:28:06;2.10;99.90
18408;DHT22;9330;52.210;21.174;2022-12-07T09:30:34;2.10;99.90
18408;DHT22;9330;52.210;21.174;2022-12-07T09:33:01;2.10;99.90
18408;DHT22;9330;52.210;21.174;2022-12-07T09:35:28;2.20;99.90
18408;DHT22;9330;52.210;21.174;2022-12-07T09:37:55;2.30;99.90
18408;DHT22;9330;52.210;21.174;2022-12-07T09:40:23;2.20;99.90
18408;DHT22;9330;52.210;21.174;2022-12-07T09:42:53;2.30;99.90
18408;DHT22;9330;52.210;21.174;2022-12-07T09:45:23;2.30;99.90
18408;DHT22;9330;52.210;21.174;2022-12-07T09:47:50;2.30;99.90
18408;DHT22;9330;52.210;21.174;2022-12-07T09:50:21;2.30;99.90
18408;DHT22;9330;52.210;21.174;2022-12-07T09:52:49;2.30;99.90
18408;DHT22;9330;52.210;21.174;2022-12-07T09:55:21;2.40;99.90
18408;DHT22;9330;52.210;21.174;2022-12-07T09:57:51;2.30;99.90
18408;DHT22;9330;52.210;21.174;2022-12-07T10:00:20;2.40;99.90
18408;DHT22;9330;52.210;21.174;2022-12-07T10:02:52;2.40;99.90
18408;DHT22;9330;52.210;21.174;2022-12-07T10:05:25;2.50;99.90
18408;DHT22;9330;52.210;21.174;2022-12-07T10:07:53;2.70;99.90
18408;DHT22;9330;52.210;21.174;2022-12-07T10:10:25;2.50;99.90
18408;DHT22;9330;52.210;21.174;2022-12-07T10:12:56;2.50;99.90
18408;DHT22;9330;52.210;21.174;2022-12-07T10:15:23;2.50;99.90
18408;DHT22;9330;52.210;21.174;2022-12-07T10:18:18;2.50;99.90
18408;DHT22;9330;52.210;21.174;2022-12-07T10:20:46;2.50;99.90
18408;DHT22;9330;52.210;21.174;2022-12-07T10:23:15;2.50;99.90
18408;DHT22;9330;52.210;21.174;2022-12-07T10:25:42;2.50;99.90
18408;DHT22;9330;52.210;21.174;2022-12-07T10:28:17;2.50;99.90
18408;DHT22;9330;52.210;21.174;2022-12-07T10:30:50;2.50;99.90
18408;DHT22;9330;52.210;21.174;2022-12-07T10:33:33;2.50;99.90
18408;DHT22;9330;52.210;21.174;2022-12-07T10:36:09;2.60;99.90
18408;DHT22;9330;52.210;21.174;2022-12-07T10:38:44;2.60;99.90
18408;DHT22;9330;52.210;21.174;2022-12-07T10:41:11;2.60;99.90
18408;DHT22;9330;52.210;21.174;2022-12-07T10:43:47;2.80;99.90
18408;DHT22;9330;52.210;21.174;2022-12-07T10:49:55;2.60;99.90
18408;DHT22;9330;52.210;21.174;2022-12-07T10:52:40;2.60;99.90
18408;DHT22;9330;52.210;21.174;2022-12-07T10:55:18;2.60;99.90
18408;DHT22;9330;52.210;21.174;2022-12-07T10:58:11;2.70;99.90
18408;DHT22;9330;52.210;21.174;2022-12-07T11:00:51;2.60;99.90
18408;DHT22;9330;52.210;21.174;2022-12-07T11:03:34;2.60;99.90
18408;DHT22;9330;52.210;21.174;2022-12-07T11:06:13;2.60;99.90
18408;DHT22;9330;52.210;21.174;2022-12-07T11:08:57;2.60;99.90
18408;DHT22;9330;52.210;21.174;2022-12-07T11:11:32;2.60;99.90
18408;DHT22;9330;52.210;21.174;2022-12-07T11:14:09;2.60;99.90
18408;DHT22;9330;52.210;21.174;2022-12-07T11:16:51;2.70;99.90
18408;DHT22;9330;52.210;21.174;2022-12-07T11:19:48;2.60;99.90
18408;DHT22;9330;52.210;21.174;2022-12-07T11:22:26;2.60;99.90
18408;DHT22;9330;52.210;21.174;2022-12-07T11:25:02;2.60;99.90
18408;DHT22;9330;52.210;21.174;2022-12-07T11:27:35;2.80;99.90
18408;DHT22;9330;52.210;21.174;2022-12-07T11:30:17;2.70;99.90
18408;DHT22;9330;52.210;21.174;2022-12-07T11:32:57;2.70;99.90
18408;DHT22;9330;52.210;21.174;2022-12-07T11:35:34;2.70;99.90
18408;DHT22;9330;52.210;21.174;2022-12-07T11:38:09;2.70;99.90
18408;DHT22;9330;52.210;21.174;2022-12-07T11:40:38;2.60;99.90
18408;DHT22;9330;52.210;21.174;2022-12-07T11:43:13;2.80;99.90
18408;DHT22;9330;52.210;21.174;2022-12-07T11:45:43;2.70;99.90
18408;DHT22;9330;52.210;21.174;2022-12-07T11:48:17;2.70;99.90
18408;DHT22;9330;52.210;21.174;2022-12-07T11:50:50;2.80;99.90
18408;DHT22;9330;52.210;21.174;2022-12-07T11:53:22;2.80;99.90
18408;DHT22;9330;52.210;21.174;2022-12-07T11:55:54;2.80;99.90
18408;DHT22;9330;52.210;21.174;2022-12-07T11:58:38;2.80;99.90
18408;DHT22;9330;52.210;21.174;2022-12-07T12:01:14;2.90;99.90
18408;DHT22;9330;52.210;21.174;2022-12-07T12:03:47;2.80;99.90
18408;DHT22;9330;52.210;21.174;2022-12-07T12:06:15;3.00;99.90
18408;DHT22;9330;52.210;21.174;2022-12-07T12:08:45;2.80;99.90
18408;DHT22;9330;52.210;21.174;2022-12-07T12:11:24;2.80;99.90
18408;DHT22;9330;52.210;21.174;2022-12-07T12:14:12;2.90;99.90
18408;DHT22;9330;52.210;21.174;2022-12-07T12:17:10;2.90;99.90
18408;DHT22;9330;52.210;21.174;2022-12-07T12:19:42;2.90;99.90
18408;DHT22;9330;52.210;21.174;2022-12-07T12:22:23;3.10;99.90
18408;DHT22;9330;52.210;21.174;2022-12-07T12:24:53;3.00;99.90
18408;DHT22;9330;52.210;21.174;2022-12-07T12:27:24;2.90;99.90
18408;DHT22;9330;52.210;21.174;2022-12-07T12:29:54;3.10;99.90
18408;DHT22;9330;52.210;21.174;2022-12-07T12:32:23;3.10;99.90
18408;DHT22;9330;52.210;21.174;2022-12-07T12:35:27;2.90;99.90
18408;DHT22;9330;52.210;21.174;2022-12-07T12:38:26;2.90;99.90
18408;DHT22;9330;52.210;21.174;2022-12-07T12:40:54;2.80;99.90
18408;DHT22;9330;52.210;21.174;2022-12-07T12:43:41;2.80;99.90
18408;DHT22;9330;52.210;21.174;2022-12-07T12:46:46;2.70;99.90
18408;DHT22;9330;52.210;21.174;2022-12-07T12:53:14;2.70;99.90
18408;DHT22;9330;52.210;21.174;2022-12-07T12:56:11;2.70;99.90
18408;DHT22;9330;52.210;21.174;2022-12-07T12:58:44;2.70;99.90
18408;DHT22;9330;52.210;21.174;2022-12-07T13:01:43;2.60;99.90
18408;DHT22;9330;52.210;21.174;2022-12-07T13:04:38;2.70;99.90
18408;DHT22;9330;52.210;21.174;2022-12-07T13:07:12;2.70;99.90
18408;DHT22;9330;52.210;21.174;2022-12-07T13:09:44;2.70;99.90
18408;DHT22;9330;52.210;21.174;2022-12-07T13:12:14;2.60;99.90
18408;DHT22;9330;52.210;21.174;2022-12-07T13:14:52;2.60;99.90
18408;DHT22;9330;52.210;21.174;2022-12-07T13:17:56;2.50;99.90
18408;DHT22;9330;52.210;21.174;2022-12-07T13:20:53;2.60;99.90
18408;DHT22;9330;52.210;21.174;2022-12-07T13:23:24;2.60;99.90
18408;DHT22;9330;52.210;21.174;2022-12-07T13:25:56;2.70;99.90
18408;DHT22;9330;52.210;21.174;2022-12-07T13:28:31;2.50;99.90
18408;DHT22;9330;52.210;21.174;2022-12-07T13:31:04;2.50;99.90
18408;DHT22;9330;52.210;21.174;2022-12-07T13:33:36;2.70;99.90
18408;DHT22;9330;52.210;21.174;2022-12-07T13:36:03;2.60;99.90
18408;DHT22;9330;52.210;21.174;2022-12-07T13:38:32;2.60;99.90
18408;DHT22;9330;52.210;21.174;2022-12-07T13:41:12;2.60;99.90
18408;DHT22;9330;52.210;21.174;2022-12-07T13:43:49;2.50;99.90
18408;DHT22;9330;52.210;21.174;2022-12-07T13:46:20;2.60;99.90
18408;DHT22;9330;52.210;21.174;2022-12-07T13:48:51;2.70;99.90
18408;DHT22;9330;52.210;21.174;2022-12-07T13:51:21;2.50;99.90
18408;DHT22;9330;52.210;21.174;2022-12-07T13:53:50;2.50;99.90
18408;DHT22;9330;52.210;21.174;2022-12-07T13:56:21;2.60;99.90
18408;DHT22;9330;52.210;21.174;2022-12-07T13:58:49;2.70;99.90
18408;DHT22;9330;52.210;21.174;2022-12-07T14:01:16;2.50;99.90
18408;DHT22;9330;52.210;21.174;2022-12-07T14:03:44;2.60;99.90
18408;DHT22;9330;52.210;21.174;2022-12-07T14:06:21;2.70;99.90
18408;DHT22;9330;52.210;21.174;2022-12-07T14:08:51;2.50;99.90
18408;DHT22;9330;52.210;21.174;2022-12-07T14:11:33;2.50;99.90
18408;DHT22;9330;52.210;21.174;2022-12-07T14:14:02;2.40;99.90
18408;DHT22;9330;52.210;21.174;2022-12-07T14:16:30;2.50;99.90
18408;DHT22;9330;52.210;21.174;2022-12-07T14:18:59;2.40;99.90
18408;DHT22;9330;52.210;21.174;2022-12-07T14:21:32;2.40;99.90
18408;DHT22;9330;52.210;21.174;2022-12-07T14:24:12;2.40;99.90
18408;DHT22;9330;52.210;21.174;2022-12-07T14:26:45;2.40;99.90
18408;DHT22;9330;52.210;21.174;2022-12-07T14:29:20;2.40;99.90
18408;DHT22;9330;52.210;21.174;2022-12-07T14:31:47;2.30;99.90
18408;DHT22;9330;52.210;21.174;2022-12-07T14:34:14;2.40;99.90
18408;DHT22;9330;52.210;21.174;2022-12-07T14:36:42;2.40;99.90
18408;DHT22;9330;52.210;21.174;2022-12-07T14:39:09;2.30;99.90
18408;DHT22;9330;52.210;21.174;2022-12-07T14:41:35;2.30;99.90
18408;DHT22;9330;52.210;21.174;2022-12-07T14:44:21;2.20;99.90
18408;DHT22;9330;52.210;21.174;2022-12-07T14:46:48;2.20;99.90
18408;DHT22;9330;52.210;21.174;2022-12-07T14:49:15;2.20;99.90
18408;DHT22;9330;52.210;21.174;2022-12-07T14:51:45;2.40;99.90
18408;DHT22;9330;52.210;21.174;2022-12-07T14:54:17;2.10;99.90
18408;DHT22;9330;52.210;21.174;2022-12-07T14:56:45;2.10;99.90
18408;DHT22;9330;52.210;21.174;2022-12-07T14:59:15;2.20;99.90
18408;DHT22;9330;52.210;21.174;2022-12-07T15:01:43;2.10;99.90
18408;DHT22;9330;52.210;21.174;2022-12-07T15:04:10;2.00;99.90
18408;DHT22;9330;52.210;21.174;2022-12-07T15:06:37;2.10;99.90
18408;DHT22;9330;52.210;21.174;2022-12-07T15:09:04;2.00;99.90
18408;DHT22;9330;52.210;21.174;2022-12-07T15:11:31;2.00;99.90
18408;DHT22;9330;52.210;21.174;2022-12-07T15:13:58;1.80;99.90
18408;DHT22;9330;52.210;21.174;2022-12-07T15:16:35;1.80;99.90
18408;DHT22;9330;52.210;21.174;2022-12-07T15:19:04;2.00;99.90
18408;DHT22;9330;52.210;21.174;2022-12-07T15:21:30;1.80;99.90
18408;DHT22;9330;52.210;21.174;2022-12-07T15:23:57;1.80;99.90
18408;DHT22;9330;52.210;21.174;2022-12-07T15:26:24;1.70;99.90
18408;DHT22;9330;52.210;21.174;2022-12-07T15:28:52;1.60;99.90
18408;DHT22;9330;52.210;21.174;2022-12-07T15:31:20;1.70;99.90
18408;DHT22;9330;52.210;21.174;2022-12-07T15:33:47;1.60;99.90
18408;DHT22;9330;52.210;21.174;2022-12-07T15:36:19;1.60;99.90
18408;DHT22;9330;52.210;21.174;2022-12-07T15:38:47;1.80;99.90
18408;DHT22;9330;52.210;21.174;2022-12-07T15:41:14;1.50;99.90
18408;DHT22;9330;52.210;21.174;2022-12-07T15:43:41;1.70;99.90
18408;DHT22;9330;52.210;21.174;2022-12-07T15:46:29;1.60;99.90
18408;DHT22;9330;52.210;21.174;2022-12-07T15:48:57;1.50;99.90
18408;DHT22;9330;52.210;21.174;2022-12-07T15:51:25;1.50;99.90
18408;DHT22;9330;52.210;21.174;2022-12-07T15:53:53;1.50;99.90
18408;DHT22;9330;52.210;21.174;2022-12-07T15:56:20;1.60;99.90
18408;DHT22;9330;52.210;21.174;2022-12-07T15:58:47;1.60;99.90
18408;DHT22;9330;52.210;21.174;2022-12-07T16:01:15;1.50;99.90
18408;DHT22;9330;52.210;21.174;2022-12-07T16:03:43;1.60;99.90
18408;DHT22;9330;52.210;21.174;2022-12-07T16:06:11;1.50;99.90
18408;DHT22;9330;52.210;21.174;2022-12-07T16:08:43;1.50;99.90
18408;DHT22;9330;52.210;21.174;2022-12-07T16:11:11;1.60;99.90
18408;DHT22;9330;52.210;21.174;2022-12-07T16:13:38;1.50;99.90
18408;DHT22;9330;52.210;21.174;2022-12-07T16:16:07;1.60;99.90
18408;DHT22;9330;52.210;21.174;2022-12-07T16:18:34;1.60;99.90